MOM weather

Letfotar Airport
Moudjeria, Brakna Region, Mauritania

Public forecast

Using degrees Celsius for public forecast. Weather courtesy of forecast.io.

METAR (pilot weather report)

Report is more than 2 hours old.

Closest report is Podor Airport, 155.3 nm (287.6 km) WSW. Retrieved 2019/07/24 00:00 UTC (2 hours ago):

GOSP 240000Z 28002KT CAVOK 33/20 Q1009

TAF (pilot weather forecast)

Forecast is more than 12 hours old.

Closest forecast is Nouakchott International Airport, 198.1 nm (366.9 km) W. Retrieved 2016/06/26 18:52 UTC (3 years ago):

TAF GQNN 261700Z 2618/2800 28010KT 6000 NSC BECMG 2619/2621 BKN008 PROB40 TEMPO 2704/2708 4000 BR BECMG 2709/2711 FEW010